createdAt,value
2022-08-07T00:00:26.166Z,12.75
2022-08-07T00:02:53.647Z,12.98
2022-08-07T00:05:23.627Z,12.77
2022-08-07T00:07:59.756Z,12.70
2022-08-07T00:10:30.430Z,12.93
2022-08-07T00:13:17.372Z,12.90
2022-08-07T00:15:52.435Z,13.20
2022-08-07T00:18:23.838Z,12.32
2022-08-07T00:21:02.034Z,12.65
2022-08-07T00:23:32.514Z,13.45
2022-08-07T00:26:06.905Z,13.27
2022-08-07T00:28:55.600Z,13.38
2022-08-07T00:31:37.171Z,13.15
2022-08-07T00:34:08.773Z,12.40
2022-08-07T00:36:42.599Z,12.60
2022-08-07T00:39:16.644Z,12.90
2022-08-07T00:42:02.211Z,13.02
2022-08-07T00:44:38.389Z,14.45
2022-08-07T00:47:15.852Z,13.73
2022-08-07T00:50:19.278Z,13.13
2022-08-07T00:52:43.284Z,13.50
2022-08-07T00:55:17.471Z,13.50
2022-08-07T00:57:56.017Z,14.02
2022-08-07T01:00:23.948Z,13.30
2022-08-07T01:02:52.419Z,14.00
2022-08-07T01:05:20.965Z,13.70
2022-08-07T01:07:51.959Z,13.95
2022-08-07T01:10:20.061Z,13.70
2022-08-07T01:12:54.004Z,14.20
2022-08-07T01:16:00.696Z,13.85
2022-08-07T01:18:17.460Z,14.45
2022-08-07T01:20:59.293Z,14.55
2022-08-07T01:23:38.466Z,14.40
2022-08-07T01:26:13.253Z,14.43
2022-08-07T01:28:48.305Z,14.43
2022-08-07T01:31:21.355Z,15.43
2022-08-07T01:33:55.625Z,14.43
2022-08-07T01:36:33.273Z,15.60
2022-08-07T01:39:09.852Z,15.90
2022-08-07T01:41:55.214Z,16.20
2022-08-07T01:44:32.621Z,16.88
2022-08-07T01:48:16.458Z,16.92
2022-08-07T01:49:54.689Z,16.02
2022-08-07T01:52:26.769Z,16.25
2022-08-07T01:54:56.514Z,15.88
2022-08-07T01:58:06.921Z,15.15
2022-08-07T02:00:28.714Z,15.80
2022-08-07T02:03:21.738Z,15.93
2022-08-07T02:06:02.287Z,14.50
2022-08-07T02:08:42.383Z,14.07
2022-08-07T02:11:11.549Z,13.85
2022-08-07T02:14:02.650Z,14.20
2022-08-07T02:16:33.696Z,13.88
2022-08-07T02:20:05.818Z,14.13
2022-08-07T02:21:59.717Z,13.63
2022-08-07T02:24:30.030Z,14.80
2022-08-07T02:27:01.499Z,15.57
2022-08-07T02:29:32.888Z,14.88
2022-08-07T02:32:05.549Z,13.55
2022-08-07T02:34:34.179Z,12.45
2022-08-07T02:37:08.260Z,12.95
2022-08-07T02:39:43.838Z,12.98
2022-08-07T02:42:33.796Z,13.10
2022-08-07T02:45:57.669Z,13.13
2022-08-07T02:47:52.162Z,12.63
2022-08-07T02:50:20.059Z,11.90
2022-08-07T02:53:06.299Z,12.67
2022-08-07T02:56:04.225Z,12.50
2022-08-07T02:58:29.268Z,11.35
2022-08-07T03:01:03.276Z,11.35
2022-08-07T03:03:49.005Z,12.70
2022-08-07T03:06:25.869Z,11.60
2022-08-07T03:09:04.782Z,11.93
2022-08-07T03:11:38.626Z,12.50
2022-08-07T03:14:09.388Z,11.75
2022-08-07T03:16:38.968Z,11.75
2022-08-07T03:19:10.147Z,11.93
2022-08-07T03:21:38.012Z,12.70
2022-08-07T03:24:19.560Z,14.60
2022-08-07T03:27:00.367Z,11.32
2022-08-07T03:32:23.128Z,10.57
2022-08-07T03:35:00.967Z,9.77
2022-08-07T03:37:53.299Z,9.65
2022-08-07T03:40:27.440Z,9.90
2022-08-07T03:43:00.685Z,9.57
2022-08-07T03:45:31.407Z,9.05
2022-08-07T03:48:10.072Z,9.88
2022-08-07T03:50:39.356Z,9.63
2022-08-07T03:53:11.482Z,9.45
2022-08-07T03:55:52.932Z,9.23
2022-08-07T03:59:05.370Z,9.77
2022-08-07T04:01:15.687Z,8.77
2022-08-07T04:03:49.749Z,8.68
2022-08-07T04:06:37.615Z,8.70
2022-08-07T04:09:15.461Z,9.27
2022-08-07T04:12:24.114Z,9.70
2022-08-07T04:17:20.223Z,8.77
2022-08-07T04:19:51.995Z,11.93
2022-08-07T04:22:27.564Z,9.30
2022-08-07T04:25:01.961Z,8.40
2022-08-07T04:27:35.580Z,8.32
2022-08-07T04:30:13.419Z,8.43
2022-08-07T04:33:01.008Z,8.82
2022-08-07T04:35:39.157Z,8.00
2022-08-07T04:38:13.482Z,8.20
2022-08-07T04:40:52.273Z,7.80
2022-08-07T04:44:12.308Z,8.77
2022-08-07T04:46:59.731Z,8.43
2022-08-07T04:49:28.409Z,8.30
2022-08-07T04:52:26.506Z,9.33
2022-08-07T04:55:15.273Z,9.40
2022-08-07T04:58:27.498Z,8.68
2022-08-07T05:00:59.446Z,9.10
2022-08-07T05:04:06.440Z,9.27
2022-08-07T05:06:51.653Z,9.40
2022-08-07T05:09:46.157Z,8.98
2022-08-07T05:12:27.055Z,8.88
2022-08-07T05:15:23.181Z,8.38
2022-08-07T05:18:00.440Z,9.82
2022-08-07T05:20:40.944Z,8.30
2022-08-07T05:23:17.095Z,7.70
2022-08-07T05:26:11.524Z,9.02
2022-08-07T05:28:40.595Z,12.27
2022-08-07T05:31:13.019Z,9.00
2022-08-07T05:33:51.201Z,7.95
2022-08-07T05:36:35.365Z,7.75
2022-08-07T05:39:08.949Z,8.20
2022-08-07T05:42:02.583Z,7.20
2022-08-07T05:44:35.420Z,8.35
2022-08-07T05:47:18.406Z,7.80
2022-08-07T05:49:53.439Z,9.65
2022-08-07T05:52:30.054Z,7.93
2022-08-07T05:55:07.274Z,8.15
2022-08-07T05:57:42.289Z,7.10
2022-08-07T06:00:15.924Z,7.95
2022-08-07T06:02:55.765Z,7.07
2022-08-07T06:05:28.274Z,6.82
2022-08-07T06:08:30.358Z,6.97
2022-08-07T06:10:51.371Z,7.00
2022-08-07T06:13:20.866Z,6.80
2022-08-07T06:16:10.211Z,6.80
2022-08-07T06:18:43.063Z,6.78
2022-08-07T06:22:15.814Z,6.78
2022-08-07T06:24:38.006Z,6.65
2022-08-07T06:26:46.398Z,6.65
2022-08-07T06:29:14.756Z,6.90
2022-08-07T06:31:49.450Z,6.88
2022-08-07T06:34:28.058Z,6.93
2022-08-07T06:36:57.669Z,7.85
2022-08-07T06:40:15.952Z,6.82
2022-08-07T06:42:34.903Z,6.95
2022-08-07T06:45:18.124Z,7.65
2022-08-07T06:47:58.522Z,6.47
2022-08-07T06:50:33.352Z,6.57
2022-08-07T06:53:06.129Z,6.45
2022-08-07T06:56:00.844Z,7.18
2022-08-07T06:58:32.212Z,6.05
2022-08-07T07:01:11.202Z,6.32
2022-08-07T07:03:49.294Z,6.65
2022-08-07T07:06:26.351Z,5.90
2022-08-07T07:08:55.358Z,5.55
2022-08-07T07:12:09.713Z,6.07
2022-08-07T07:14:14.353Z,8.23
2022-08-07T07:16:49.905Z,6.80
2022-08-07T07:19:57.119Z,6.60
2022-08-07T07:22:36.008Z,6.50
2022-08-07T07:26:33.329Z,5.55
2022-08-07T07:28:07.611Z,5.00
2022-08-07T07:31:02.252Z,4.63
2022-08-07T07:33:32.740Z,4.60
2022-08-07T07:36:05.377Z,4.90
2022-08-07T07:38:34.790Z,4.80
2022-08-07T07:43:48.146Z,5.00
2022-08-07T07:46:36.709Z,4.82
2022-08-07T07:50:33.222Z,4.57
2022-08-07T07:52:13.060Z,5.70
2022-08-07T07:57:29.035Z,5.72
2022-08-07T08:00:20.852Z,6.43
2022-08-07T08:03:06.093Z,5.15
2022-08-07T08:05:51.096Z,4.80
2022-08-07T08:08:35.959Z,4.93
2022-08-07T08:11:08.685Z,4.90
2022-08-07T08:13:52.988Z,6.78
2022-08-07T08:16:30.073Z,5.30
2022-08-07T08:19:18.151Z,5.70
2022-08-07T08:22:09.782Z,4.53
2022-08-07T08:27:56.714Z,4.60
2022-08-07T08:30:27.825Z,6.38
2022-08-07T08:32:58.631Z,5.85
2022-08-07T08:35:28.792Z,5.05
2022-08-07T08:38:03.441Z,4.93
2022-08-07T08:40:37.681Z,5.20
2022-08-07T08:43:50.504Z,5.45
2022-08-07T08:46:38.151Z,5.20
2022-08-07T08:49:33.445Z,5.68
2022-08-07T08:52:22.392Z,5.35
2022-08-07T08:54:52.669Z,4.80
2022-08-07T08:57:37.782Z,4.50
2022-08-07T09:00:12.250Z,4.38
2022-08-07T09:02:39.359Z,4.32
2022-08-07T09:05:32.132Z,4.85
2022-08-07T09:08:28.550Z,4.50
2022-08-07T09:11:24.177Z,4.90
2022-08-07T09:14:07.358Z,4.97
2022-08-07T09:16:45.702Z,5.18
2022-08-07T09:19:51.000Z,5.05
2022-08-07T09:24:31.521Z,5.70
2022-08-07T09:25:54.880Z,5.55
2022-08-07T09:30:04.319Z,4.90
2022-08-07T09:31:54.721Z,5.05
2022-08-07T09:34:53.888Z,5.28
2022-08-07T09:37:48.335Z,6.75
2022-08-07T09:42:57.336Z,5.25
2022-08-07T09:47:25.643Z,5.13
2022-08-07T09:50:01.284Z,5.22
2022-08-07T09:52:34.057Z,4.70
2022-08-07T09:55:17.004Z,4.53
2022-08-07T09:58:09.994Z,5.32
2022-08-07T10:00:50.695Z,5.47
2022-08-07T10:04:14.301Z,5.32
2022-08-07T10:07:25.720Z,5.13
2022-08-07T10:10:02.456Z,5.25
2022-08-07T10:12:53.243Z,7.55
2022-08-07T10:15:44.999Z,6.40
2022-08-07T10:18:51.665Z,7.68
2022-08-07T10:22:14.604Z,10.60
2022-08-07T10:25:00.788Z,8.85
2022-08-07T10:27:57.197Z,8.60
2022-08-07T10:30:36.457Z,7.57
2022-08-07T10:34:06.877Z,10.00
2022-08-07T10:36:51.145Z,8.65
2022-08-07T10:39:41.183Z,9.73
2022-08-07T10:42:36.683Z,8.98
2022-08-07T10:45:16.742Z,9.13
2022-08-07T10:48:09.732Z,7.68
2022-08-07T10:53:43.988Z,8.80
2022-08-07T10:56:43.941Z,8.93
2022-08-07T10:59:30.480Z,11.23
2022-08-07T11:02:12.396Z,8.98
2022-08-07T11:05:17.876Z,9.23
2022-08-07T11:07:59.237Z,10.65
2022-08-07T11:10:52.304Z,10.02
2022-08-07T11:14:45.608Z,9.25
2022-08-07T11:17:07.227Z,10.98
2022-08-07T11:19:55.432Z,9.20
2022-08-07T11:22:45.625Z,9.63
2022-08-07T11:25:25.979Z,9.02
2022-08-07T11:28:15.592Z,7.38
2022-08-07T11:30:50.920Z,10.05
2022-08-07T11:33:55.425Z,7.60
2022-08-07T11:36:30.605Z,6.53
2022-08-07T11:39:10.232Z,7.25
2022-08-07T11:42:29.625Z,7.80
2022-08-07T11:45:35.776Z,7.43
2022-08-07T11:48:26.750Z,6.45
2022-08-07T11:51:41.373Z,5.32
2022-08-07T11:54:26.988Z,6.68
2022-08-07T11:57:11.366Z,7.13
2022-08-07T12:00:11.107Z,6.63
2022-08-07T12:03:05.048Z,5.72
2022-08-07T12:06:39.087Z,4.53
2022-08-07T12:09:05.676Z,5.82
2022-08-07T12:12:10.281Z,5.43
2022-08-07T12:15:16.957Z,3.03
2022-08-07T12:18:08.285Z,5.47
2022-08-07T12:20:46.609Z,4.22
2022-08-07T12:24:04.903Z,5.07
2022-08-07T12:26:49.128Z,5.18
2022-08-07T12:29:20.384Z,5.18
2022-08-07T12:32:24.235Z,5.50
2022-08-07T12:34:56.262Z,3.53
2022-08-07T12:37:28.517Z,5.50
2022-08-07T12:40:46.721Z,3.33
2022-08-07T12:43:10.161Z,5.20
2022-08-07T12:45:43.320Z,4.90
2022-08-07T12:48:27.644Z,4.78
2022-08-07T12:51:17.250Z,4.35
2022-08-07T12:54:36.561Z,5.63
2022-08-07T12:57:09.455Z,4.28
2022-08-07T12:59:54.299Z,4.47
2022-08-07T13:02:28.810Z,4.22
2022-08-07T13:06:03.893Z,5.05
2022-08-07T13:08:18.437Z,4.05
2022-08-07T13:11:25.107Z,3.63
2022-08-07T13:14:24.557Z,5.38
2022-08-07T13:17:10.190Z,5.03
2022-08-07T13:19:55.942Z,3.25
2022-08-07T13:22:42.175Z,3.40
2022-08-07T13:25:28.693Z,3.55
2022-08-07T13:28:13.003Z,2.47
2022-08-07T13:30:52.373Z,4.50
2022-08-07T13:34:31.954Z,2.95
2022-08-07T13:36:51.391Z,2.95
2022-08-07T13:40:36.760Z,3.35
2022-08-07T13:42:39.873Z,2.53
2022-08-07T13:46:06.802Z,3.60
2022-08-07T13:48:05.577Z,3.30
2022-08-07T13:50:44.866Z,2.45
2022-08-07T13:53:35.898Z,3.45
2022-08-07T13:56:35.031Z,3.42
2022-08-07T13:59:05.819Z,3.70
2022-08-07T14:01:51.026Z,2.95
2022-08-07T14:04:29.746Z,3.30
2022-08-07T14:06:58.970Z,3.45
2022-08-07T14:10:01.279Z,3.00
2022-08-07T14:12:54.833Z,3.10
2022-08-07T14:15:36.086Z,2.75
2022-08-07T14:18:27.531Z,2.88
2022-08-07T14:21:11.657Z,3.28
2022-08-07T14:24:05.277Z,3.85
2022-08-07T14:26:40.614Z,3.33
2022-08-07T14:30:07.620Z,3.03
2022-08-07T14:32:12.273Z,3.65
2022-08-07T14:34:46.459Z,3.10
2022-08-07T14:37:17.762Z,3.30
2022-08-07T14:40:17.553Z,3.03
2022-08-07T14:43:55.143Z,3.20
2022-08-07T14:45:46.842Z,3.00
2022-08-07T14:48:21.227Z,2.78
2022-08-07T14:50:52.137Z,3.35
2022-08-07T14:54:03.783Z,2.38
2022-08-07T14:56:13.976Z,4.10
2022-08-07T14:58:52.510Z,3.22
2022-08-07T15:01:50.842Z,3.90
2022-08-07T15:04:21.914Z,3.25
2022-08-07T15:06:52.804Z,3.00
2022-08-07T15:09:57.264Z,4.20
2022-08-07T15:18:48.449Z,3.25
2022-08-07T15:21:58.395Z,2.92
2022-08-07T15:25:14.891Z,3.58
2022-08-07T15:27:23.756Z,3.70
2022-08-07T15:30:08.843Z,2.90
2022-08-07T15:33:01.501Z,3.40
2022-08-07T15:36:02.025Z,3.30
2022-08-07T15:38:58.543Z,3.30
2022-08-07T15:42:42.348Z,3.15
2022-08-07T15:44:19.272Z,2.97
2022-08-07T15:46:52.764Z,2.80
2022-08-07T15:50:05.612Z,3.00
2022-08-07T15:52:17.161Z,2.90
2022-08-07T15:54:49.648Z,3.42
2022-08-07T15:57:39.518Z,4.07
2022-08-07T16:00:09.269Z,3.33
2022-08-07T16:02:58.224Z,2.90
2022-08-07T16:05:31.345Z,2.83
2022-08-07T16:08:31.291Z,3.05
2022-08-07T16:11:26.965Z,3.03
2022-08-07T16:14:00.205Z,2.78
2022-08-07T16:16:57.649Z,2.78
2022-08-07T16:19:43.015Z,3.35
2022-08-07T16:22:58.074Z,3.00
2022-08-07T16:25:59.374Z,3.33
2022-08-07T16:30:07.300Z,2.97
2022-08-07T16:31:52.026Z,2.80
2022-08-07T16:34:48.338Z,3.20
2022-08-07T16:38:04.608Z,3.30
2022-08-07T16:40:23.384Z,2.88
2022-08-07T16:44:06.017Z,3.30
2022-08-07T16:47:04.567Z,2.72
2022-08-07T16:50:28.021Z,3.13
2022-08-07T16:52:51.894Z,2.67
2022-08-07T16:55:50.660Z,4.90
2022-08-07T16:59:10.163Z,2.88
2022-08-07T17:01:55.538Z,2.70
2022-08-07T17:04:57.543Z,3.13
2022-08-07T17:07:55.916Z,3.20
2022-08-07T17:10:54.313Z,3.15
2022-08-07T17:13:41.733Z,3.08
2022-08-07T17:16:40.143Z,3.05
2022-08-07T17:20:00.375Z,3.25
2022-08-07T17:22:16.417Z,3.28
2022-08-07T17:25:10.793Z,3.03
2022-08-07T17:27:51.664Z,4.22
2022-08-07T17:30:26.564Z,3.30
2022-08-07T17:34:08.819Z,2.80
2022-08-07T17:36:26.001Z,2.92
2022-08-07T17:39:19.596Z,3.17
2022-08-07T17:42:03.475Z,3.10
2022-08-07T17:44:46.913Z,3.28
2022-08-07T17:48:10.388Z,3.60
2022-08-07T17:50:54.245Z,3.03
2022-08-07T17:54:00.690Z,3.65
2022-08-07T17:56:29.866Z,3.20
2022-08-07T17:58:57.336Z,3.50
2022-08-07T18:01:45.643Z,3.13
2022-08-07T18:04:41.909Z,3.60
2022-08-07T18:07:20.747Z,3.10
2022-08-07T18:10:10.246Z,3.40
2022-08-07T18:13:23.282Z,3.38
2022-08-07T18:16:10.157Z,3.35
2022-08-07T18:21:06.939Z,3.20
2022-08-07T18:21:55.034Z,3.20
2022-08-07T18:24:35.639Z,3.47
2022-08-07T18:27:38.039Z,3.70
2022-08-07T18:30:31.085Z,3.45
2022-08-07T18:33:34.498Z,3.80
2022-08-07T18:36:05.994Z,3.58
2022-08-07T18:38:55.880Z,3.97
2022-08-07T18:42:12.967Z,5.47
2022-08-07T18:45:39.719Z,3.55
2022-08-07T18:48:02.974Z,4.00
2022-08-07T18:50:49.455Z,3.85
2022-08-07T18:53:39.700Z,3.53
2022-08-07T18:56:31.814Z,3.60
2022-08-07T18:59:46.790Z,5.10
2022-08-07T19:02:31.659Z,4.03
2022-08-07T19:05:15.474Z,3.60
2022-08-07T19:07:51.825Z,3.60
2022-08-07T19:10:51.240Z,4.15
2022-08-07T19:14:00.206Z,4.47
2022-08-07T19:17:04.571Z,4.00
2022-08-07T19:20:01.401Z,4.05
2022-08-07T19:23:18.891Z,4.00
2022-08-07T19:26:21.907Z,4.20
2022-08-07T19:30:54.101Z,4.25
2022-08-07T19:31:59.661Z,4.85
2022-08-07T19:34:32.694Z,3.95
2022-08-07T19:37:10.050Z,4.10
2022-08-07T19:39:57.644Z,4.30
2022-08-07T19:42:39.926Z,5.05
2022-08-07T19:45:12.621Z,4.35
2022-08-07T19:47:59.894Z,4.10
2022-08-07T19:50:45.311Z,4.10
2022-08-07T19:54:29.853Z,4.15
2022-08-07T19:56:13.592Z,4.40
2022-08-07T19:58:55.202Z,4.47
2022-08-07T20:01:22.765Z,4.25
2022-08-07T20:04:11.126Z,4.97
2022-08-07T20:06:43.108Z,4.15
2022-08-07T20:09:46.432Z,4.07
2022-08-07T20:12:22.513Z,4.35
2022-08-07T20:14:53.954Z,4.63
2022-08-07T20:17:30.852Z,4.32
2022-08-07T20:19:59.155Z,4.65
2022-08-07T20:22:34.229Z,5.00
2022-08-07T20:25:19.863Z,4.90
2022-08-07T20:27:54.283Z,4.65
2022-08-07T20:30:33.973Z,4.90
2022-08-07T20:33:04.901Z,8.57
2022-08-07T20:35:51.736Z,4.63
2022-08-07T20:38:22.611Z,4.57
2022-08-07T20:40:53.487Z,4.30
2022-08-07T20:43:25.883Z,4.60
2022-08-07T20:46:25.697Z,4.65
2022-08-07T20:48:58.017Z,4.90
2022-08-07T20:51:36.006Z,4.32
2022-08-07T20:54:12.143Z,4.78
2022-08-07T20:56:46.100Z,4.47
2022-08-07T21:00:04.270Z,4.97
2022-08-07T21:02:35.214Z,5.70
2022-08-07T21:05:16.200Z,4.70
2022-08-07T21:07:49.651Z,4.68
2022-08-07T21:10:31.262Z,6.40
2022-08-07T21:13:00.831Z,6.47
2022-08-07T21:15:58.337Z,6.72
2022-08-07T21:18:29.389Z,6.88
2022-08-07T21:20:59.495Z,6.68
2022-08-07T21:23:49.519Z,6.85
2022-08-07T21:26:27.017Z,6.28
2022-08-07T21:29:03.456Z,6.53
2022-08-07T21:32:43.646Z,7.45
2022-08-07T21:34:52.856Z,6.75
2022-08-07T21:37:57.885Z,6.30
2022-08-07T21:40:39.152Z,7.30
2022-08-07T21:43:13.212Z,7.25
2022-08-07T21:46:08.512Z,7.78
2022-08-07T21:48:57.495Z,7.85
2022-08-07T21:51:27.837Z,7.63
2022-08-07T21:54:18.829Z,8.38
2022-08-07T21:57:11.106Z,7.72
2022-08-07T22:00:22.113Z,7.00
2022-08-07T22:03:05.720Z,7.35
2022-08-07T22:05:48.140Z,8.20
2022-08-07T22:08:20.997Z,7.75
2022-08-07T22:10:59.891Z,8.13
2022-08-07T22:13:50.415Z,8.23
2022-08-07T22:16:43.410Z,8.52
2022-08-07T22:19:29.380Z,8.43
2022-08-07T22:22:21.406Z,8.35
2022-08-07T22:25:08.525Z,8.25
2022-08-07T22:28:07.250Z,8.57
2022-08-07T22:30:36.081Z,8.75
2022-08-07T22:33:09.630Z,9.52
2022-08-07T22:35:57.668Z,9.80
2022-08-07T22:38:48.890Z,10.00
2022-08-07T22:42:03.031Z,9.80
2022-08-07T22:44:25.141Z,9.70
2022-08-07T22:47:16.931Z,9.90
2022-08-07T22:50:39.086Z,9.55
2022-08-07T22:54:08.866Z,9.93
2022-08-07T22:56:47.687Z,10.00
2022-08-07T22:59:49.824Z,10.07
2022-08-07T23:02:31.987Z,9.77
2022-08-07T23:06:14.967Z,9.63
2022-08-07T23:08:46.299Z,9.48
2022-08-07T23:11:45.882Z,9.45
2022-08-07T23:14:35.837Z,8.10
2022-08-07T23:17:21.389Z,10.03
2022-08-07T23:20:07.563Z,9.75
2022-08-07T23:23:11.986Z,8.57
2022-08-07T23:26:18.431Z,7.90
2022-08-07T23:29:16.658Z,8.25
2022-08-07T23:34:18.640Z,8.15
2022-08-07T23:35:00.826Z,10.65
2022-08-07T23:37:32.803Z,8.02
2022-08-07T23:40:24.778Z,7.53
2022-08-07T23:43:37.911Z,8.50
2022-08-07T23:46:11.548Z,8.75
2022-08-07T23:48:53.959Z,7.90
2022-08-07T23:53:05.899Z,7.15
2022-08-07T23:54:43.840Z,7.47
2022-08-07T23:57:55.259Z,8.13
